Surrency, Georgia
Current Conditions -  °F | °C
As of 10:15 PM on Monday 26 Jan 2015 (Local Time) from KBHC Reporting Station
Clear Clear  
Wind Chill: 37°   Ceiling: Unl
Heat Index: 43°   Visibility: 10mi
Dew Point: 34°   Wind: 12mph
Humidity: 70%   Direction: 310°NW
Pressure: 29.93"   Gusts: 18mph
Location:  31.72°N, 82.2°W
Report Text: KBHC 270315Z AUTO 31010G16KT 10SM CLR 06/01 A2993 RMK AO2
Loading
Personal Weather Stations






























Interactive Weather Map New forecast layout! Learn more

10-Day Weather Forecast

Advertisements
Track Severe Weather on mobile